Sterling, Virginia
Current Conditions -  °F | °C
As of 12:52 AM on Friday 19 Dec 2014 (Local Time) from KIAD Reporting Station
Broken Clouds Broken Clouds  
Wind Chill: 26°   Ceiling: 10000
Heat Index: 32°   Visibility: 10mi
Dew Point: 23°   Wind: 6mph
Humidity: 69%   Direction: 270°W
Pressure: 30.11"   Gusts: NA
Location:  39.03°N, 77.41°W
Report Text: KIAD 190552Z 27005KT 10SM FEW055 BKN100 00/M05 A3011 RMK AO2 SLP199 T00001050 10011 20000 50001
Loading
Personal Weather Stations






























Interactive Weather Map New forecast layout! Learn more

10-Day Weather Forecast

Advertisements
Track Severe Weather on mobile